x

9440910 - Toke Point, Wa (tokw1) Weather Station

9:54 - Tue 28th Jul 2015 All times are PDT. -7 hours from GMT.

  • Wind
    7mph, 8mph gusts
  • Sea Temp 66°f
  • Aire Temp 61°f
  • Sea Pressure 1025mb
  • 9440910 - Toke Point, Wa
  • 9440910 - Toke Point, Wa

More Historic Weather Station data

Upgrade to MSW Pro to gain access to the past 30 days of data for over 8000 Wavebouys and Weather Stations around the globe.

Join Pro

Comparision Forecast

View Surf forecast
   
mar 07/28 9:54 7 8 mph 1025mb 66f 61f
9:48 7 9 mph 1025mb 66f 60f
9:42 8 9 mph 1025.1mb 66f 60f
9:36 8 9 mph 1025.1mb 66f 60f
9:30 8 9 mph 1025.2mb 66f 59f
9:24 7 8 mph 1025.2mb 66f 59f
9:18 7 8 mph 1025.3mb 66f 59f
9:12 7 9 mph 1025.3mb 66f 59f
9:06 8 10 mph 1025.3mb 66f 58f
9:00 8 11 mph 1025.3mb 66f 58f
8:54 9 11 mph 1025.4mb 66f 57f
8:48 9 10 mph 1025.4mb 66f 57f
8:42 9 10 mph 1025.3mb 66f 57f
8:36 8 10 mph 1025.2mb 66f 57f
8:30 9 11 mph 1025.3mb 67f 57f
8:24 10 11 mph 1025.3mb 66f 57f
8:18 10 11 mph 1025.2mb 66f 57f
8:12 8 10 mph 1025.3mb 66f 58f
8:06 8 9 mph 1025.3mb 66f 57f
8:00 7 9 mph 1025.3mb 66f 58f
7:54 5 7 mph 1025.3mb 67f 58f
7:48 5 6 mph 1025.3mb 67f 58f
7:42 6 7 mph 1025.3mb 67f 58f
7:36 3 6 mph 1025.3mb 67f 58f
7:30 5 6 mph 1025.3mb 66f 58f
7:24 3 7 mph 1025.3mb 66f 58f
7:18 6 8 mph 1025.3mb 66f 57f
7:12 6 8 mph 1025.2mb 67f 57f
7:06 6 8 mph 1025.1mb 67f 58f
7:00 6 7 mph 1025mb 67f 58f
6:54 6 8 mph 1025mb 67f 57f
6:48 7 9 mph 1025mb 67f 57f
6:42 8 9 mph 1025mb 67f 57f
6:36 7 8 mph 1024.9mb 67f 57f
6:30 7 8 mph 1024.9mb 67f 57f
6:24 7 8 mph 1024.9mb 67f 57f
6:18 7 9 mph 1024.9mb 67f 57f
6:12 7 8 mph 1024.8mb 67f 57f
6:06 7 8 mph 1024.8mb 67f 57f
6:00 7 8 mph 1024.8mb 67f 58f
5:54 5 7 mph 1024.9mb 67f 58f
5:48 5 6 mph 1024.9mb 67f 58f
5:42 5 7 mph 1024.9mb 67f 58f
5:36 5
mph
1024.8mb 66f 58f
5:30 3 6 mph 1024.7mb 66f 58f
5:24 5 6 mph 1024.7mb 66f 58f
5:18 3 5 mph 1024.8mb 66f 58f
5:12 5 6 mph 1024.8mb 65f 58f
5:06 2 3 mph 1024.8mb 65f 58f
5:00 2 3 mph 1024.8mb 66f 58f
4:54 2 3 mph 1024.8mb 66f 57f
4:48 2 5 mph 1024.8mb 66f 58f
4:42 3 5 mph 1024.8mb 66f 58f
4:36 3 5 mph 1024.8mb 66f 58f
4:30 3 5 mph 1024.8mb 65f 58f
4:24 2 3 mph 1024.8mb 65f 58f
4:18  -  2 mph 1024.8mb 65f 58f
4:12  -  3 mph 1024.8mb 65f 58f
4:06 2 3 mph 1024.7mb 65f 58f
4:00 1 2 mph 1024.7mb 65f 58f
3:54 1 2 mph 1024.7mb 65f 58f
3:48 1 2 mph 1024.5mb 65f 58f
3:42  -  3 mph 1024.6mb 65f 57f
3:36 1 2 mph 1024.7mb 65f 58f
3:30 1 2 mph 1024.7mb 65f 58f
3:24 2 3 mph 1024.7mb 65f 58f
3:18 2 5 mph 1024.7mb 65f 58f
3:12 3 5 mph 1024.7mb 65f 58f
3:06 5 6 mph 1024.7mb 65f 58f
3:00 6 7 mph 1024.7mb 65f 58f
2:54 6 7 mph 1024.7mb 65f 58f
2:48 6
mph
1024.7mb 65f 58f
2:42 3 6 mph 1024.6mb 65f 58f
2:36 5 6 mph 1024.7mb 65f 58f
2:30 5 6 mph 1024.6mb 65f -
2:24 3 5 mph 1024.6mb 65f -
2:18  -  mph - - 58f
2:12  -  mph - - 58f
2:06  -  mph - - 58f
2:00 5 6 mph 1024.7mb 65f 58f
1:54 5 6 mph 1024.7mb 65f 58f
1:48 3 5 mph 1024.8mb 65f 58f
1:42 3 5 mph 1024.7mb 65f 58f
1:36 5 6 mph 1024.8mb 66f 58f
1:30 5
mph
1024.8mb 65f 59f
1:24 5 6 mph 1024.7mb 65f 59f
1:18 5 6 mph 1024.7mb 65f 59f
1:12 3 6 mph 1024.7mb 65f 59f
1:06 6 7 mph 1024.8mb 65f 60f
1:00 7 8 mph 1024.8mb 65f 60f
12:54 7 10 mph 1024.8mb 65f 60f
12:48 8 10 mph 1024.7mb 65f 60f
12:42 7 9 mph 1024.8mb 65f 60f
12:36 7 13 mph 1024.8mb 65f 60f
12:30 10 14 mph 1024.8mb 65f 60f
12:24 8 10 mph 1024.9mb 65f 60f
12:18 8 11 mph 1024.9mb 65f 60f
12:12 8 10 mph 1024.9mb 65f 60f
12:06 8 11 mph 1025mb 65f 60f
12:00 7 10 mph 1025mb 65f 60f
lun 07/27 11:54 8 9 mph 1025mb 65f 60f
11:48 8 11 mph 1025mb 65f 60f
11:42 6 8 mph 1025mb 65f 60f
11:36 8 9 mph 1025.1mb 65f 60f
11:30 7 11 mph 1025.2mb 65f 60f
11:24 8 11 mph 1025.2mb 65f 60f
11:18 7 10 mph 1025.3mb 65f 60f
11:12 7 10 mph 1025.2mb 65f 60f
11:06 7 9 mph 1025.3mb 65f 60f
11:00 8 9 mph 1025.3mb 65f 60f
10:54 8 10 mph 1025.3mb 64f 60f
10:48 8 10 mph 1025.3mb 64f 60f
10:42 7 11 mph 1025.4mb 64f 60f
10:36 8 10 mph 1025.4mb 64f 60f
10:30 9 11 mph 1025.5mb 64f 60f
10:24 11 13 mph 1025.5mb 64f 60f
10:18 9 10 mph 1025.5mb 64f 60f
10:12 8 9 mph 1025.5mb 64f 60f
10:06 8 9 mph 1025.5mb 64f 60f
10:00 8 10 mph 1025.4mb 64f 61f
9:54 9 10 mph 1025.4mb 64f 61f
9:48 9
mph
1025.3mb 64f 61f
9:42 8 10 mph 1025.3mb 65f 61f
9:36 8 10 mph 1025.2mb 65f 61f
9:30 8 10 mph 1025.2mb 65f 61f
9:24 7 9 mph 1025.1mb 66f 61f
9:18 7 11 mph 1025.2mb 66f 61f
9:12 6 9 mph 1025.2mb 66f 61f
9:06 8 9 mph 1025.1mb 66f 61f
9:00 6 8 mph 1025.1mb 66f 61f
8:54 8 13 mph 1025mb 66f 61f
8:48 7 13 mph 1025mb 67f 62f
8:42 7 13 mph 1025mb 67f 62f
8:36 8 16 mph 1024.9mb 67f 62f
8:30 10 15 mph 1024.9mb 66f 62f
8:24 13 17 mph 1024.9mb 67f 62f
8:18 9 11 mph 1024.8mb 67f 62f
8:12 9 10 mph 1024.8mb 67f 62f
8:06 9 15 mph 1024.8mb 67f 62f
8:00 15 18 mph 1024.8mb 67f 62f
7:54 15 20 mph 1024.9mb 67f 62f
7:48 16 18 mph 1024.8mb 67f 62f
7:42 14 16 mph 1024.8mb 67f 63f
7:36 13 17 mph 1024.7mb 67f 63f
7:30 15 20 mph 1024.7mb 67f 63f
7:24 13 17 mph 1024.6mb 67f 63f
7:18 16 20 mph 1024.5mb 67f 63f
7:12 14 22 mph 1024.5mb 67f 63f
7:06 11 16 mph 1024.5mb 67f 63f
7:00 14 20 mph 1024.4mb 67f 63f
6:54 18 21 mph 1024.4mb 67f 63f
6:48 16 22 mph 1024.4mb 67f 64f
6:42 18 22 mph 1024.4mb 67f 63f
6:36 15 18 mph 1024.4mb 67f 64f
6:30 16 20 mph 1024.5mb 67f 64f
6:24 14 18 mph 1024.5mb 68f 64f
6:18 15 23 mph 1024.5mb 68f 64f
6:12 17 22 mph 1024.5mb 68f 64f
6:06 20 23 mph 1024.4mb 67f 64f
6:00 17 22 mph 1024.5mb 67f 64f
5:54 14 20 mph 1024.5mb 67f 64f
5:48 14 20 mph 1024.5mb 67f 64f
5:42 17 21 mph 1024.6mb 68f 64f
5:36 15 18 mph 1024.6mb 68f 64f
5:30 15 22 mph 1024.6mb 67f 64f
5:24 17 22 mph 1024.5mb 68f 64f
5:18 16 21 mph 1024.6mb 68f 64f
5:12 17 21 mph 1024.5mb 68f 64f
5:06 17 22 mph 1024.5mb 68f 64f
5:00 14 17 mph 1024.5mb 68f 65f
4:54 15 22 mph 1024.5mb 68f 64f
4:48 16 21 mph 1024.4mb 68f 64f
4:42 9 15 mph 1024.5mb 68f 64f
4:36 10 16 mph 1024.5mb 68f 65f
4:30 11 18 mph 1024.5mb 68f 65f
4:24 13 18 mph 1024.5mb 68f 65f
4:18 13 20 mph 1024.5mb 68f 65f
4:12 14 20 mph 1024.4mb 68f 65f
4:06 13 20 mph 1024.5mb 68f 64f
4:00 14 18 mph 1024.4mb 68f 64f
3:54 14 18 mph 1024.4mb 68f 64f
3:48 10 17 mph 1024.3mb 68f 65f
3:42 14 18 mph 1024.3mb 68f 64f
3:36 14 18 mph 1024.3mb 68f 64f
3:30 13 16 mph 1024.3mb 68f 64f
3:24 15 20 mph 1024.2mb 67f 64f
3:18 16 20 mph 1024.3mb 67f 64f
3:12 14 18 mph 1024.2mb 67f 64f
3:06 13 17 mph 1024.2mb 68f 64f
3:00 15 18 mph 1024.2mb 67f 64f
2:54 13 20 mph 1024.2mb 68f 64f
2:48 14 20 mph 1024.2mb 67f 64f
2:42 13 17 mph 1024.2mb 67f 65f
2:36 13 18 mph 1024.2mb 67f 64f
2:30 14 18 mph 1024.1mb 67f 64f
2:24 15 18 mph 1024.1mb 67f 64f
2:18 14 20 mph 1024.2mb 67f 64f
2:12 15 17 mph 1024.1mb 67f 64f
2:06 14 17 mph 1024.1mb 67f 64f
2:00 13 17 mph 1024.1mb 66f 63f
1:54 13 18 mph 1024.1mb 67f 64f
1:48 13 17 mph 1024mb 67f 64f
1:42 13 18 mph 1024mb 67f 64f
1:36 14 20 mph 1024mb 67f 64f
1:30 14 17 mph 1023.9mb 66f 64f
1:24 13 17 mph 1023.9mb 66f 64f
1:18 13 17 mph 1023.9mb 66f 64f
1:12 13 17 mph 1023.8mb 66f 64f
1:06 14 17 mph 1023.7mb 66f 63f
1:00 13 16 mph 1023.6mb 66f 64f
12:54 11 17 mph 1023.7mb 66f 64f
12:48 13 18 mph 1023.7mb 66f 64f
12:42 15 20 mph 1023.7mb 66f 64f
12:36 14 18 mph 1023.8mb 66f 63f
12:30 13 17 mph 1023.9mb 66f 64f
12:24 14 18 mph 1023.8mb 66f 63f
12:18 14 20 mph 1023.8mb 65f 64f
12:12 15 20 mph 1023.7mb 65f 64f
12:06 14 17 mph 1023.7mb 65f 64f
12:00 15 18 mph 1023.6mb 65f 64f
11:54 14 18 mph 1023.5mb 65f 64f
11:48 13 16 mph 1023.5mb 65f 64f
11:42 13 16 mph 1023.4mb 65f 64f
11:36 11 16 mph 1023.4mb 65f 64f
11:30 13 16 mph 1023.3mb 65f 64f
11:24 11 14 mph 1023.3mb 65f 64f
11:18 7 9 mph 1023.3mb - 64f
11:12 7 10 mph 1023.2mb - 64f
11:06 8 11 mph 1023.2mb - 63f
11:00 10 16 mph 1023.3mb 65f 63f
10:54 10 15 mph 1023.2mb 66f 63f
10:48 10 14 mph 1023.2mb 66f 62f
10:42 11 15 mph 1023.1mb 65f 62f
10:36 13 16 mph 1023.1mb 65f 63f
10:30 11 15 mph 1023mb 65f 63f
10:24 11 15 mph 1022.9mb 65f 62f
10:18 14 16 mph 1022.9mb 65f 62f
10:12 14 15 mph 1022.8mb 65f 62f
10:06 11 14 mph 1022.8mb 66f 62f
10:00 11 16 mph 1022.8mb 66f 62f
9:54 10 14 mph 1022.8mb 66f 62f
9:48 9 11 mph 1022.8mb 66f 62f
9:42 11 15 mph 1022.7mb 66f 62f
9:36 10 13 mph 1022.6mb 65f 62f
9:30 10 14 mph 1022.6mb 66f 62f
9:24 8 11 mph 1022.6mb 65f 62f
9:18 9 11 mph 1022.7mb 66f 62f
9:12 2 3 mph 1022.6mb 66f 61f
9:06 1 6 mph 1022.6mb 65f 61f
9:00 3 5 mph 1022.6mb 66f 61f
8:54 1 3 mph 1022.5mb 66f 61f
8:48 2 3 mph 1022.4mb 65f 61f
8:42  -  2 mph 1022.4mb 66f 61f
8:36  -  2 mph 1022.4mb 66f 60f
8:30 2 3 mph 1022.3mb 66f 60f
8:24 2 3 mph 1022.2mb 66f 60f
8:18 2 5 mph 1022.2mb 66f 60f
8:12 5 6 mph 1022.1mb 66f 60f
8:06 3 5 mph 1022mb 66f 60f
8:00 3 6 mph 1022mb 66f 59f
7:54 5 6 mph 1022mb 66f 59f
7:48 3 5 mph 1022mb 66f 59f
7:42 2 5 mph 1021.9mb 66f 59f
7:36 5 6 mph 1021.8mb 66f 59f
7:30 2 3 mph 1021.8mb 66f 59f
7:24 1 3 mph 1021.8mb 66f 59f
7:18 1 3 mph 1021.8mb 66f 59f
7:12 1 2 mph 1021.8mb 66f 59f
7:06  -  2 mph 1021.8mb 66f 59f
7:00  -  5 mph 1021.8mb 67f 58f
6:54 3 6 mph 1021.8mb 67f 58f
6:48 2 3 mph 1021.8mb 67f 58f
6:42 1 3 mph 1021.7mb 67f 58f
6:36 2 3 mph 1021.7mb 66f 58f
6:30  -  2 mph 1021.6mb 66f 58f
6:24 1 3 mph 1021.6mb 67f 58f
6:18 2
mph
1021.6mb 67f 58f
6:12 2 3 mph 1021.6mb 67f 57f
6:06 2 5 mph 1021.5mb 67f 57f
6:00 3 5 mph 1021.5mb 67f 56f
5:54 2 3 mph 1021.4mb 67f 56f
5:48 1 2 mph 1021.3mb 67f 56f
5:42  -  1 mph 1021.2mb 67f 56f
5:36  -  2 mph 1021.2mb 67f 56f
5:30 1 2 mph 1021.3mb 67f 57f
5:24 1 2 mph 1021.3mb 67f 57f
5:18 2 3 mph 1021.2mb 67f 57f
5:12 2 3 mph 1021.1mb 67f 58f
5:06 2
mph
1021.1mb 67f 57f
5:00 1 3 mph 1021.1mb 67f 58f
4:54 1 2 mph 1021mb 67f 58f
4:48 2
mph
1020.9mb 67f 58f
4:42  -  1 mph 1020.9mb 66f 58f
4:36  -  2 mph 1020.9mb 67f 58f
4:30  -  1 mph 1020.8mb 66f 58f
4:24 1
mph
1020.8mb 67f 58f
4:18  -  1 mph 1020.8mb 66f 58f
4:12  -  2 mph 1020.7mb 66f 58f
4:06 2
mph
1020.6mb 67f 58f
4:00 2 5 mph 1020.6mb 67f 58f
3:54 3 6 mph 1020.6mb 66f 58f
3:48 2
mph
1020.5mb 65f 58f
3:42 2 5 mph 1020.5mb 65f 58f
3:36 2 5 mph 1020.5mb 65f 58f
3:30 2 5 mph 1020.5mb 65f 58f
3:24 5 6 mph 1020.4mb 65f 58f
3:18 5 6 mph 1020.4mb 65f 58f
3:12 5 6 mph 1020.4mb 65f 58f
3:06 5 6 mph 1020.4mb 65f 58f
3:00 3 5 mph 1020.4mb 65f 58f
2:54 2 3 mph 1020.4mb 65f 57f
2:48 2 3 mph 1020.4mb 65f 57f
2:42 1 3 mph 1020.4mb 65f 58f
2:36 1 3 mph 1020.4mb 66f 58f
2:30 2 3 mph 1020.4mb 65f 58f
2:24 3 6 mph 1020.4mb 65f 58f
2:18 3 6 mph 1020.4mb 65f 58f
2:12 5 6 mph 1020.4mb 65f 59f
2:06 3 7 mph 1020.4mb 65f 59f
2:00 6 8 mph 1020.3mb 65f 59f
1:54 7 9 mph 1020.3mb 65f 59f
1:48 7 10 mph 1020.3mb 66f 59f
1:42 8 10 mph 1020.3mb 65f 59f
1:36 7 9 mph 1020.3mb 65f 59f
1:30 7 10 mph 1020.3mb 65f 59f
1:24 7 9 mph 1020.2mb 65f 59f
1:18 7 10 mph 1020.3mb 66f 58f
1:12 7 8 mph 1020.2mb 66f 59f
1:06 6 7 mph 1020.2mb 66f 59f
1:00 6 9 mph 1020.2mb 65f 59f
12:54 9 11 mph 1020.2mb 65f 59f
12:48 8 9 mph 1020.3mb 65f 59f
12:42 8 9 mph 1020.3mb 65f 59f
12:36 7 8 mph 1020.3mb 65f 59f
12:30 6 8 mph 1020.3mb 65f 59f
12:24 8 10 mph 1020.3mb 65f 59f
12:18 7 9 mph 1020.2mb 65f 59f
12:12 6 7 mph 1020.2mb 65f 59f
12:06 6 7 mph 1020.2mb 65f 59f
12:00 3 5 mph 1020.2mb 65f 59f
dom 07/26 11:54 3
mph
1020.1mb 65f 58f
11:48 2 3 mph 1020.1mb 65f 59f
11:42 3 5 mph 1020.1mb 65f 59f
11:36 3 5 mph 1020.1mb 66f 59f
11:30 3 5 mph 1020.1mb 66f 59f
11:24 3
mph
1020.1mb 66f 59f
11:18 3 6 mph 1020.2mb 66f 60f
11:12 2 5 mph 1020.2mb 65f 60f
11:06 3 6 mph 1020.2mb 66f 60f
11:00 5 6 mph 1020.2mb 66f 60f
10:54 3 6 mph 1020.2mb 65f 60f
10:48 3 5 mph 1020.3mb 65f 60f
10:42 3 5 mph 1020.3mb 65f 60f
10:36 3 5 mph 1020.3mb 65f 60f
10:30 3 6 mph 1020.3mb 65f 60f
10:24 5 6 mph 1020.3mb 66f 60f
10:18 5 6 mph 1020.3mb 66f 60f
10:12 3 5 mph 1020.2mb 66f 60f
10:06 3 6 mph 1020.2mb 66f 60f
10:00 5 7 mph 1020.2mb 66f 60f
9:54 5 7 mph 1020.2mb 66f 60f
9:48 3 5 mph 1020.2mb 66f 61f
9:42 3 6 mph 1020.2mb 66f 61f
9:36 5 6 mph 1020.2mb 66f 61f
9:30 6 7 mph 1020.2mb 66f 61f
9:24 6 7 mph 1020.1mb 66f 61f
9:18 5 8 mph 1020.1mb 66f 61f
9:12 7 9 mph 1020mb 66f 61f
9:06 6 8 mph 1019.9mb 66f 61f
9:00 5 8 mph 1019.8mb 66f 61f
8:54 7 9 mph 1019.8mb 66f 61f
8:48 7 13 mph 1019.7mb 66f 62f
8:42 10 14 mph 1019.7mb 66f 62f
8:36 10 14 mph 1019.7mb 66f 62f
8:30 11 13 mph 1019.7mb 66f 62f
8:24 10 13 mph 1019.7mb 66f 62f
8:18 8 11 mph 1019.6mb 66f 62f
8:12 10 14 mph 1019.6mb 66f 62f
8:06 11 14 mph 1019.6mb 66f 62f
8:00 11 14 mph 1019.6mb 66f 62f
7:54 11 15 mph 1019.6mb 66f 62f
7:48 14 16 mph 1019.6mb 66f 62f
7:42 11 14 mph 1019.6mb 66f 63f
7:36 10 14 mph 1019.6mb 67f 63f
7:30 11 16 mph 1019.6mb 67f 63f
7:24 10 14 mph 1019.5mb 67f 63f
7:18 13 16 mph 1019.4mb 67f 63f
7:12 14 17 mph 1019.4mb 67f 63f
7:06 15 18 mph 1019.4mb 66f 63f
7:00 15 18 mph 1019.3mb 66f 63f
6:54 15 18 mph 1019.3mb 67f 64f
6:48 13 15 mph 1019.4mb 67f 64f
6:42 11 15 mph 1019.4mb 67f 63f
6:36 11 17 mph 1019.4mb 66f 63f
6:30 14 15 mph 1019.3mb 66f 63f
6:24 14 17 mph 1019.4mb 66f 63f
6:18 11 16 mph 1019.4mb 66f 64f
6:12 15 18 mph 1019.3mb 67f 64f
6:06 11 20 mph 1019.4mb 67f 64f
6:00 14 16 mph 1019.4mb 67f 64f
5:54 10 17 mph 1019.4mb 67f 64f
5:48 14 16 mph 1019.4mb 67f 64f
5:42 14 20 mph 1019.4mb 67f 64f
5:36 13 17 mph 1019.4mb 67f 64f
5:30 13 18 mph 1019.4mb 67f 64f
5:24 15 17 mph 1019.3mb 67f 63f
5:18 11 17 mph 1019.3mb 67f 64f
5:12 15 20 mph 1019.3mb 67f 64f
5:06 16 18 mph 1019.2mb 67f 64f
5:00 16 20 mph 1019.2mb 67f 64f
4:54 15 18 mph 1019.1mb 67f 65f
4:48 13 20 mph 1019.1mb 67f 65f
4:42 16 20 mph 1019.1mb 67f 64f
4:36 11 17 mph 1019.1mb 67f 65f
4:30 11 17 mph 1019.1mb 67f 65f
4:24 13 17 mph 1019.1mb 67f 65f
4:18 14 16 mph 1019mb 67f 65f
4:12 13 18 mph 1019mb 67f 65f
4:06 16 18 mph 1019mb 67f 64f
4:00 17 21 mph 1019mb 68f 64f
3:54 15 18 mph 1019mb 68f 64f
3:48 16 18 mph 1019mb 68f 64f
3:42 14 20 mph 1019mb 67f 64f
3:36 17 21 mph 1019mb 67f 64f
3:30 16 21 mph 1018.9mb 67f 64f
3:24 11 15 mph 1019mb 67f 64f
3:18 13 17 mph 1019mb 67f 64f
3:12 13 17 mph 1018.9mb 67f 64f
3:06 14 17 mph 1018.9mb 67f 64f
3:00 14 16 mph 1018.9mb 67f 64f
2:54 14 17 mph 1019mb 67f 64f
2:48 11 15 mph 1019mb 67f 64f
2:42 14 17 mph 1019mb 67f 63f
2:36 14 18 mph 1019mb 67f 64f
2:30 11 16 mph 1019mb 67f 64f
2:24 14 17 mph 1019mb 67f 63f
2:18 17 20 mph 1019mb 67f 63f
2:12 14 18 mph 1019mb 67f 63f
2:06 15 20 mph 1019mb 67f 63f
2:00 15 17 mph 1019.1mb 68f 63f
1:54 15 18 mph 1019.1mb 67f 63f
1:48 11 15 mph 1019.2mb 67f 63f
1:42 10 15 mph 1019.2mb 67f 63f
1:36 10 15 mph 1019.2mb 67f 63f
1:30 9 13 mph 1019.2mb 67f 63f
1:24 9 14 mph 1019.2mb 67f 63f
1:18 9 14 mph 1019.2mb 67f 64f
1:12 10 14 mph 1019.1mb 66f 63f
1:06 9 13 mph 1019.1mb 66f 63f
1:00 8 13 mph 1019.1mb 66f 63f
12:54 9 13 mph 1019mb 66f 63f
12:48 9 11 mph 1019mb 66f 63f
12:42 8 11 mph 1019.1mb 66f 63f
12:36 13 15 mph 1019.1mb 66f 62f
12:30 11 16 mph 1019.2mb 66f 62f
12:24 13 18 mph 1019.2mb 66f 62f
12:18 16 20 mph 1019.2mb 66f 62f
12:12 14 18 mph 1019.1mb 66f 63f
12:06 10 13 mph 1019mb 66f 63f
12:00 9 14 mph 1019mb 66f 63f
11:54 9 11 mph 1019mb 66f 63f
11:48 8 13 mph 1018.9mb 66f 63f
11:42 8 13 mph 1018.9mb 66f 64f
11:36 10 14 mph 1018.9mb 65f 63f
11:30 9 14 mph 1018.8mb 65f 63f
11:24 10 13 mph 1018.8mb 65f 64f
11:18 10 13 mph 1018.8mb 65f 63f
11:12 9 14 mph 1018.7mb 65f 63f
11:06 10 13 mph 1018.7mb 65f 63f
11:00 9 13 mph 1018.6mb 65f 63f
10:54 9 11 mph 1018.6mb 65f 63f
10:48 7 11 mph 1018.6mb 65f 63f
9:18 6 7 mph 1018.3mb 65f 62f
9:12 5 6 mph 1018.3mb 65f 61f
9:06 6 7 mph 1018.3mb 65f 61f
9:00 5 6 mph 1018.3mb 65f 61f
8:54 2 3 mph 1018.3mb 65f 61f
8:48 2 3 mph 1018.4mb 65f 61f
8:42 3 5 mph 1018.3mb 65f 61f
8:36 2 3 mph 1018.3mb 65f 60f
8:30 2 3 mph 1018.3mb 65f 60f
8:24 2 5 mph 1018.3mb 65f 60f
8:18 2 6 mph 1018.3mb 65f 60f
8:12 3 6 mph 1018.4mb 65f 59f
8:06 6 7 mph 1018.3mb 65f 59f
8:00 1 2 mph 1018.2mb 65f 60f
7:54 1 6 mph 1018.2mb 65f 60f
7:48 3 6 mph 1018.1mb 65f 59f
7:42 5 6 mph 1018.1mb 65f 58f
7:36 6
mph
1018.1mb 65f 58f
7:30 5 6 mph 1018.1mb 65f 58f
7:24 6 7 mph 1018mb 65f 58f
7:18 6 7 mph 1018mb 65f 58f
7:12 5 6 mph 1018mb 65f 59f
7:06 6
mph
1018mb 65f 59f
7:00 5 6 mph 1018mb 65f 59f
6:54 5 6 mph 1018mb 65f 59f
6:48 5 6 mph 1018.1mb 65f 59f
6:42 3 5 mph 1018mb 66f 58f
6:36 5
mph
1018mb 65f 58f
6:30 3 5 mph 1017.9mb 65f 59f
6:24 3 6 mph 1017.9mb 66f 59f
6:18 3 5 mph 1017.9mb 66f 59f
6:12 1 5 mph 1017.8mb 66f 59f
6:06 5 6 mph 1017.8mb 66f 59f
6:00 3 6 mph 1017.7mb 66f 58f
5:54 6
mph
1017.7mb 66f 58f
5:48 6 7 mph 1017.7mb 66f 58f
5:42 7
mph
1017.6mb 66f 58f
5:36 7
mph
1017.6mb 66f 58f
5:30 7 8 mph 1017.6mb 66f 58f
5:24 7 9 mph 1017.6mb 66f 58f
5:18 7 8 mph 1017.6mb 66f 59f
5:12 7 8 mph 1017.6mb 66f 58f
5:06 7
mph
1017.6mb 66f 58f
5:00 7
mph
1017.6mb 66f 58f
4:54 6 8 mph 1017.7mb 66f 58f
4:48 7 8 mph 1017.7mb 67f 58f
4:42 6 7 mph 1017.7mb 66f 59f
4:36 6 7 mph 1017.7mb 66f 59f
4:30 6
mph
1017.6mb 67f 59f
4:24 6 7 mph 1017.7mb 67f 59f
4:18 6
mph
1017.6mb 67f 59f
4:12 6
mph
1017.6mb 67f 59f
4:06 3 5 mph 1017.7mb 66f 60f
4:00 2 3 mph 1017.7mb 66f 60f
3:54 2 3 mph 1017.7mb 66f 59f
3:48 2 5 mph 1017.6mb 67f 58f
3:42 3 5 mph 1017.7mb 67f 58f
3:36 3 5 mph 1017.7mb 66f 58f
3:30 3
mph
1017.7mb 66f 58f
3:24 3 5 mph 1017.7mb 64f 58f
3:18 3 5 mph 1017.7mb 64f 58f
3:12 3 5 mph 1017.8mb 64f 58f
3:06 1 2 mph 1017.8mb 64f 58f
3:00 2 3 mph 1017.8mb 64f 58f
2:54 2 5 mph 1017.9mb 64f 59f
2:48 3
mph
1017.9mb 64f 59f
2:42 2 3 mph 1017.9mb 65f 59f
2:36 3
mph
1017.9mb 65f 59f
2:30 2 3 mph 1017.9mb 65f 59f
2:24 3 5 mph 1017.9mb 64f 59f
2:18 2 5 mph 1018mb 65f 59f
2:12 5 6 mph 1018mb 65f 59f
2:06 2 3 mph 1018mb 65f 59f
2:00  -  1 mph 1018mb 64f 59f
1:54  -  1 mph 1018.1mb 64f 59f
1:48  -  2 mph 1018.1mb 65f 59f
1:42 2 3 mph 1018.2mb 65f 59f
1:36 2 5 mph 1018.2mb 64f 59f
1:30 5 6 mph 1018.2mb 65f 59f
1:24 5 6 mph 1018.3mb 65f 59f
1:18 3 5 mph 1018.3mb 65f 59f
1:12 3 5 mph 1018.2mb 65f 59f
1:06 2 3 mph 1018.3mb 65f 60f
1:00 2 5 mph 1018.3mb 64f 60f
12:54 3 5 mph 1018.3mb 64f 59f
12:48 1 3 mph 1018.3mb 65f 59f
12:42 2
mph
1018.4mb 65f 59f
12:36 2 3 mph 1018.4mb 65f 59f
12:30 3 5 mph 1018.4mb 65f 60f
12:24 3 5 mph 1018.4mb 65f 60f
12:18 3 6 mph 1018.4mb 65f 60f
12:12 5 6 mph 1018.5mb 65f 60f
12:06 2
mph
1018.5mb 65f 60f
12:00 2
mph
1018.5mb 64f 60f
sáb 07/25 11:54 2
mph
1018.5mb 64f 60f
11:48 1 2 mph 1018.5mb 64f 60f
11:42 2
mph
1018.6mb 64f 60f
11:36 2
mph
1018.6mb 64f 60f
11:30 2
mph
1018.6mb 64f 60f
11:24 2
mph
1018.7mb 64f 60f
11:18 1 2 mph 1018.7mb 64f 60f
11:12 2 3 mph 1018.8mb 64f 60f
11:06 2
mph
1018.7mb 65f 60f
11:00 2 3 mph 1018.7mb 64f 60f
10:54 2 3 mph 1018.8mb 64f 60f
10:48 3
mph
1018.8mb 65f 60f
10:42 2 3 mph 1018.8mb 65f 60f
10:36 3 5 mph 1018.8mb 64f 61f
10:30 5
mph
1018.9mb 64f 61f
10:24 3 5 mph 1018.9mb 64f 61f
10:18 3 5 mph 1018.9mb 64f 61f
10:12 3 5 mph 1018.9mb 64f 60f
10:06 3 5 mph 1019mb 64f 61f
10:00 5
mph
1018.9mb 64f 61f
9:54 5
mph
1018.9mb 64f 61f
9:48 5
mph
1018.9mb 64f 61f
9:42 3 5 mph 1018.9mb 64f 61f
9:36 3 5 mph 1018.8mb 64f 61f
9:30 3 5 mph 1018.8mb 64f 61f
9:24 3 5 mph 1018.8mb 64f 61f
9:18 5
mph
1018.8mb 64f 61f
9:12 5 6 mph 1018.8mb 64f 61f
9:06 5 6 mph 1018.7mb 64f 61f
9:00 6 7 mph 1018.8mb 64f 62f
8:54 5 6 mph 1018.8mb 64f 62f
8:48 5 8 mph 1018.8mb 64f 62f
8:42 6 8 mph 1018.8mb 64f 62f
8:36 7 8 mph 1018.8mb 64f 62f
8:30 7 9 mph 1018.8mb 65f 62f
8:24 7 9 mph 1018.8mb 65f 63f
8:18 7 9 mph 1018.8mb 64f 63f
8:12 9 10 mph 1018.8mb 65f 63f
8:06 8 10 mph 1018.9mb 65f 63f
8:00 7 9 mph 1018.9mb 64f 63f
7:54 6 9 mph 1018.9mb 64f 63f
7:48 6 9 mph 1019mb 64f 63f
7:42 7 9 mph 1019mb 64f 64f
7:36 8 9 mph 1019mb 65f 63f
7:30 7 9 mph 1019mb 64f 64f
7:24 8 10 mph 1019mb 65f 63f
7:18 7 10 mph 1019.1mb 65f 63f
7:12 8 10 mph 1019.1mb 65f 63f
7:06 9 11 mph 1019.1mb 64f 63f
7:00 9 13 mph 1019.1mb 64f 64f
6:54 9 11 mph 1019.1mb 64f 63f
6:48 9 14 mph 1019.2mb 64f 64f
6:42 11 15 mph 1019.2mb 64f 64f
6:36 10 13 mph 1019.2mb 64f 64f
6:30 9 14 mph 1019.2mb 64f 64f
6:24 9 14 mph 1019.2mb 64f 64f
6:18 10 14 mph 1019.2mb 64f 64f
6:12 8 15 mph 1019.2mb 64f 64f
6:06 11 15 mph 1019.3mb 65f 64f
6:00 10 14 mph 1019.3mb 64f 64f
5:54 13 14 mph 1019.3mb 64f 63f
5:48 10 15 mph 1019.3mb 64f 64f
5:42 10 17 mph 1019.4mb 65f 64f
5:36 13 15 mph 1019.4mb 64f 64f
5:30 13 17 mph 1019.4mb 64f 64f
5:24 11 15 mph 1019.4mb 64f 64f
5:18 10 17 mph 1019.4mb 64f 64f
5:12 11 15 mph 1019.4mb 65f 64f
5:06 13 16 mph 1019.4mb 65f 64f
5:00 11 15 mph 1019.4mb 64f 65f
4:54 11 17 mph 1019.4mb 64f 64f
4:48 14 18 mph 1019.5mb 65f 64f
4:42 13 17 mph 1019.4mb 65f 64f
4:36 14 18 mph 1019.4mb 65f 64f
4:30 14 16 mph 1019.4mb 65f 64f
4:24 13 16 mph 1019.4mb 65f 64f
4:18 11 15 mph 1019.4mb 65f 64f
4:12 10 14 mph 1019.4mb 65f 64f
4:06 14 16 mph 1019.5mb 65f 64f
4:00 14 16 mph 1019.4mb 65f 64f
3:54 10 15 mph 1019.5mb 65f 64f
3:48 11 16 mph 1019.5mb 66f 64f
3:42 14 16 mph 1019.5mb 65f 64f
3:36 13 15 mph 1019.5mb 65f 64f
3:30 13 16 mph 1019.5mb 65f 64f
3:24 10 15 mph 1019.5mb 65f 64f
3:18 9 15 mph 1019.6mb 65f 64f
3:12 10 14 mph 1019.5mb 65f 64f
3:06 10 14 mph 1019.6mb 66f 64f
3:00 9 14 mph 1019.6mb 66f 64f
2:54 10 14 mph 1019.6mb 67f 64f
2:48 9 13 mph 1019.5mb 66f 65f
2:42 11 14 mph 1019.5mb 66f 64f
2:36 11 16 mph 1019.5mb 66f 64f
2:30 8 13 mph 1019.5mb 66f 64f
2:24 8 14 mph 1019.5mb 66f 65f
2:18 11 14 mph 1019.4mb 66f 64f
2:12 11 13 mph 1019.5mb 66f 64f
2:06 9 13 mph 1019.5mb 66f 64f
2:00 10 14 mph 1019.5mb 66f 64f
1:54 10 13 mph 1019.6mb 66f 64f
1:48 10 13 mph 1019.6mb 66f 64f
1:42 11 14 mph 1019.5mb 65f 64f
1:36 10 14 mph 1019.5mb 65f 64f
1:30 11 14 mph 1019.4mb 66f 63f
1:24 11 14 mph 1019.4mb 66f 64f
1:18 10 13 mph 1019.4mb 66f 64f
1:12 10 14 mph 1019.4mb 66f 64f
1:06 10 11 mph 1019.4mb 65f 63f
1:00 10 14 mph 1019.4mb 66f 63f
12:54 10 14 mph 1019.4mb 65f 63f
12:48 10 13 mph 1019.4mb 65f 63f
12:42 9 13 mph 1019.3mb 65f 64f
12:36 7 10 mph 1019.3mb 65f 64f
12:30 8 13 mph 1019.4mb 65f 64f
12:24 9 13 mph 1019.4mb 64f 64f
12:18 8 14 mph 1019.4mb 64f 64f
12:12 9 13 mph 1019.3mb 64f 64f
12:06 9 14 mph 1019.3mb 65f 63f
12:00 10 13 mph 1019.3mb 65f 63f
11:54 8 10 mph 1019.3mb 64f 63f
11:48 7 9 mph 1019.2mb 64f -
11:42 7 9 mph 1019.3mb 64f -
11:36 8 9 mph 1019.3mb 64f -
11:30 7 8 mph 1019.2mb 64f 62f
11:24 6 7 mph 1019.2mb 64f 62f
11:18 6 7 mph 1019.1mb 64f 62f
11:12 6 8 mph 1019.1mb 64f 62f
11:06 7 10 mph 1019.1mb 64f 62f
11:00 8 10 mph 1019.1mb 64f 62f
10:54 8 10 mph 1019.2mb 64f 62f
10:48 7 10 mph 1019.2mb 64f 62f
10:42 9 10 mph 1019.1mb 64f 62f
10:36 9 11 mph 1019mb 64f 62f
10:30 8 10 mph 1019.1mb 64f 62f
10:24 8 10 mph 1019mb 63f 62f
10:18 6 10 mph 1019mb 63f 62f
10:12 7 9 mph 1019mb 64f 62f
10:06 8 9 mph 1019mb 64f 62f
10:00 7 9 mph 1018.9mb 64f 62f
9:54 7 8 mph 1018.9mb 64f 62f
9:48 6 8 mph 1018.9mb 64f 62f
9:42 7 8 mph 1018.8mb 64f 61f
9:36 5 7 mph 1018.8mb 64f 61f
9:30 5 7 mph 1018.8mb 63f 61f
9:24 5 6 mph 1018.8mb 63f 61f
9:18 5 7 mph 1018.7mb 63f 61f
9:12 5 6 mph 1018.7mb 63f 61f
9:06 3 5 mph 1018.6mb 63f 61f
9:00 2 3 mph 1018.5mb 62f 61f
8:54 1 3 mph 1018.5mb 63f 61f
8:48 3 5 mph 1018.5mb 62f 61f
8:42 2
mph
1018.5mb 62f 61f
8:36 1 2 mph 1018.5mb 63f 61f
8:30 2 3 mph 1018.6mb 63f 61f
8:24 2 3 mph 1018.6mb 63f 60f
8:18 2 3 mph 1018.6mb 63f 60f
8:12 2 3 mph 1018.6mb 63f 60f
8:06 2 5 mph 1018.6mb 63f 60f
8:00 5
mph
1018.6mb 63f 60f
7:54 2 3 mph 1018.5mb 63f 60f
7:48 1 2 mph 1018.5mb 63f 59f
7:42  -  1 mph 1018.5mb 63f 59f
7:36 1 2 mph 1018.5mb 63f 59f
7:30 2 3 mph 1018.5mb 63f 59f
7:24 3
mph
1018.5mb 63f 59f
7:18 2 3 mph 1018.4mb 63f 59f
7:12 2
mph
1018.3mb 63f 59f
7:06 2 3 mph 1018.2mb 63f 59f
7:00 3
mph
1018.2mb 63f 59f
6:54 3
mph
1018.2mb 63f 59f
6:48 2
mph
1018.2mb 63f 59f
6:42  -  2 mph 1018.1mb 63f 59f
6:36 2 3 mph 1018mb 64f 59f
6:30 1 2 mph 1018.1mb 64f 59f
6:24 2 6 mph 1018.2mb 64f 58f
6:18 6 11 mph 1018.2mb 63f 58f
6:12 8 9 mph 1018.3mb 63f 58f
6:06 5 6 mph 1018.3mb 64f 59f
6:00 5 6 mph 1018.1mb 64f 59f
5:54 3 6 mph 1018.1mb 64f 59f
5:48 5
mph
1017.9mb 64f 59f
5:42 2 3 mph 1017.9mb 64f 59f
5:36 2 3 mph 1017.8mb 64f 59f
5:30 2
mph
1017.8mb 64f 60f
5:24 1 2 mph 1017.8mb 64f 60f
5:18 1 2 mph 1017.8mb 65f 60f
5:12  -  1 mph 1017.7mb 65f 60f
5:06  -  1 mph 1017.8mb 65f 60f
5:00 2 3 mph 1017.8mb 64f 60f
4:54 3
mph
1017.8mb 64f 60f
4:48 2 3 mph 1017.8mb 64f 60f
4:42 2 3 mph 1017.7mb 65f 60f
4:36 2 3 mph 1017.8mb 64f 60f
4:30 2 9 mph 1017.8mb 64f 59f
4:24 6 9 mph 1017.9mb 64f 59f
4:18 1 3 mph 1017.8mb 64f 59f
4:12 2 8 mph 1017.8mb 64f 60f
4:06  -  6 mph 1017.8mb 64f 60f
4:00 3
mph
1017.8mb 64f 60f
3:54  -  1 mph 1017.8mb 64f 60f
3:48 1 3 mph 1017.8mb 65f 60f
3:42 1 2 mph 1017.8mb 65f 60f
3:36 1 2 mph 1017.8mb 65f 60f
3:30 1 2 mph 1017.8mb 65f 60f
3:24 1 2 mph 1017.8mb 65f 60f
3:18  -  1 mph 1017.8mb 65f 60f
3:12  -  1 mph 1017.9mb 64f 59f
3:06  -  1 mph 1017.9mb 65f 59f
3:00 1
mph
1017.9mb 65f 59f
2:54  -  1 mph 1017.9mb 65f 60f
2:48 1 2 mph 1017.9mb 65f 59f
2:42  -  1 mph 1017.9mb 65f 59f
2:36 1 2 mph 1017.9mb 65f 59f
2:30 2 3 mph 1017.9mb 65f 60f
2:24 3
mph
1017.9mb 64f 60f
2:18 3
mph
1017.9mb 64f 60f
2:12 2
mph
1017.9mb 64f 60f
2:06 2
mph
1017.9mb 64f 60f
2:00 1 2 mph 1018mb 64f 60f
1:54 1 2 mph 1017.9mb 64f 60f
1:48 1 2 mph 1018mb 64f 60f
1:42 2 3 mph 1018.1mb 64f 60f
1:36 3
mph
1018.1mb 64f 60f
1:30 2 3 mph 1018.1mb 64f 60f
1:24 1 2 mph 1018.2mb 64f 59f
1:18  -  1 mph 1018.3mb 64f 59f
1:12 1 2 mph 1018.3mb 64f 59f
1:06 1
mph
1018.3mb 64f 59f
1:00 1 3 mph 1018.4mb 63f 59f
12:54 2 3 mph 1018.5mb 63f 59f
12:48 3 5 mph 1018.5mb 64f 59f
12:42 3
mph
1018.6mb 63f 59f
12:36 2 3 mph 1018.6mb 64f 59f
12:30 1 2 mph 1018.5mb 64f 59f
12:24  -  1 mph 1018.5mb 64f 59f
12:18 1
mph
1018.5mb 64f 59f
12:12  -  2 mph 1018.5mb 63f 59f
12:06 2 3 mph 1018.6mb 63f 59f
12:00 2
mph
1018.6mb 63f 59f
vie 07/24 11:54  -  2 mph 1018.5mb 63f 59f
11:48 2
mph
1018.6mb 63f 59f
11:42 1 2 mph 1018.6mb 63f 59f
11:36 2 3 mph 1018.6mb 63f 59f
11:30 2 3 mph 1018.7mb 63f 59f
11:24 1 2 mph 1018.6mb 63f 59f
11:18 2
mph
1018.6mb 63f 59f
11:12 2 3 mph 1018.7mb 63f 59f
11:06 2 5 mph 1018.7mb 63f 59f
11:00 3 6 mph 1018.7mb 63f 60f
10:54 5 6 mph 1018.7mb 63f 60f
10:48 5 6 mph 1018.7mb 63f 60f
10:42 5 7 mph 1018.7mb 63f 60f
10:36 7 8 mph 1018.7mb 63f 60f
10:30 6 7 mph 1018.7mb 63f 60f
10:24 6
mph
1018.5mb 63f 60f
10:18 3 5 mph 1018.5mb 63f 60f
10:12 1 2 mph 1018.5mb 63f 60f
10:06 2 3 mph 1018.4mb 62f 60f
10:00 2
mph
1018.4mb 62f 60f
9:54 1 2 mph 1018.3mb 62f 60f
9:48 2 3 mph 1018.3mb 63f 60f
9:42 1 2 mph 1018.3mb 63f 60f
9:36 1 3 mph 1018.2mb 63f 60f
9:30 3 5 mph 1018.2mb 63f 60f
9:24 3 6 mph 1018.2mb 62f 60f
9:18 3 6 mph 1018.2mb 62f 60f
9:12 6 7 mph 1018.2mb 62f 59f
9:06 7 8 mph 1018.2mb 62f 59f
9:00 6 8 mph 1018.2mb 62f 60f
8:54 7 8 mph 1018.1mb 62f 60f
8:48 7 9 mph 1018.1mb 62f 60f
8:42 7 9 mph 1018mb 62f 60f
8:36 8 11 mph 1018.1mb 62f 60f
8:30 9 11 mph 1018.1mb 62f 60f
8:24 9 13 mph 1018.1mb 62f 61f
8:18 11 13 mph 1018.1mb 62f 61f
8:12 9 13 mph 1018.1mb 61f 61f
8:06 11 14 mph 1018.1mb 61f 61f
8:00 7 14 mph 1018.1mb 61f 62f
7:54 9 13 mph 1018.1mb 61f 62f
7:48 7 14 mph 1018.2mb 61f 62f
7:42 9 13 mph 1018.2mb 61f 62f
7:36 9 14 mph 1018.2mb 61f 62f
7:30 10 13 mph 1018.2mb 61f 62f
7:24 8 13 mph 1018.2mb 61f 62f
7:18 9 13 mph 1018.3mb 62f 62f
7:12 8 14 mph 1018.3mb 62f 62f
7:06 9 13 mph 1018.4mb 61f 62f
7:00 9 13 mph 1018.4mb 62f 62f
6:54 7 13 mph 1018.5mb 62f 62f
6:48 9 15 mph 1018.5mb 62f 62f
6:42 11 14 mph 1018.5mb 62f 62f
6:36 8 13 mph 1018.5mb 62f 62f
6:30 9 13 mph 1018.5mb 62f 62f
6:24 7 10 mph 1018.6mb 63f 62f
6:18 7 14 mph 1018.6mb 63f 63f
6:12 8 11 mph 1018.6mb 63f 63f
6:06 8 13 mph 1018.7mb 63f 63f
6:00 9 11 mph 1018.7mb 63f 62f
5:54 8 10 mph 1018.7mb 63f 62f